Terminal Aerodrome Forecast
Issued by NWS Jackson, KY

Home | Current Version | Previous Version | Text Only | Print | Product List | Glossary On
Versions: 1 2 3 4 5 6 7 8 9 10 11 12 13 14 15 16 17 18
000
FTUS43 KJKL 241700 RRA
TAFLOZ
TAF
KLOZ 241744Z 2418/2518 16008KT P6SM OVC130
     FM242100 24016G28KT 3SM -SHRA BR BKN025
     FM242130 24016G28KT P6SM -SHRA OVC009
     FM242330 26010G18KT P6SM OVC009
     FM250300 26010G18KT 5SM -RA BR OVC018
     FM251200 25008KT P6SM BKN025=

USA.gov is the U.S. government's official web portal to all federal, state and local government web resources and services.